sensor_id;sensor_type;location;lat;lon;timestamp;pressure;altitude;pressure_sealevel;temperature;humidity
6389;BME280;3227;42.654;23.360;2023-04-19T00:01:59;94025.28;;;11.88;85.52
6389;BME280;3227;42.654;23.360;2023-04-19T00:04:27;94029.53;;;11.92;85.31
6389;BME280;3227;42.654;23.360;2023-04-19T00:06:54;93961.63;;;11.49;84.62
6389;BME280;3227;42.654;23.360;2023-04-19T00:09:21;94026.25;;;11.79;85.05
6389;BME280;3227;42.654;23.360;2023-04-19T00:11:48;94027.09;;;11.81;85.68
6389;BME280;3227;42.654;23.360;2023-04-19T00:14:14;94021.13;;;11.78;85.14
6389;BME280;3227;42.654;23.360;2023-04-19T00:16:41;94004.94;;;11.70;84.64
6389;BME280;3227;42.654;23.360;2023-04-19T00:19:13;94015.97;;;11.81;85.59
6389;BME280;3227;42.654;23.360;2023-04-19T00:21:41;94017.66;;;11.85;84.37
6389;BME280;3227;42.654;23.360;2023-04-19T00:24:08;94015.09;;;11.85;85.21
6389;BME280;3227;42.654;23.360;2023-04-19T00:26:35;94018.44;;;11.87;85.14
6389;BME280;3227;42.654;23.360;2023-04-19T00:29:02;94007.41;;;11.84;84.96
6389;BME280;3227;42.654;23.360;2023-04-19T00:31:28;94008.25;;;11.82;85.04
6389;BME280;3227;42.654;23.360;2023-04-19T00:33:55;94008.25;;;11.82;84.87
6389;BME280;3227;42.654;23.360;2023-04-19T00:36:22;94005.66;;;11.86;85.02
6389;BME280;3227;42.654;23.360;2023-04-19T00:38:50;94012.34;;;11.94;85.72
6389;BME280;3227;42.654;23.360;2023-04-19T00:41:17;94010.63;;;11.96;85.23
6389;BME280;3227;42.654;23.360;2023-04-19T00:43:44;94012.25;;;12.03;84.62
6389;BME280;3227;42.654;23.360;2023-04-19T00:46:11;94010.50;;;12.05;84.48
6389;BME280;3227;42.654;23.360;2023-04-19T00:48:38;93998.53;;;12.04;84.08
6389;BME280;3227;42.654;23.360;2023-04-19T00:51:05;94003.72;;;12.01;83.22
6389;BME280;3227;42.654;23.360;2023-04-19T00:53:35;94003.84;;;11.92;83.61
6389;BME280;3227;42.654;23.360;2023-04-19T00:56:04;93998.75;;;11.91;83.66
6389;BME280;3227;42.654;23.360;2023-04-19T00:58:31;93993.53;;;11.95;83.64
6389;BME280;3227;42.654;23.360;2023-04-19T01:00:58;93996.94;;;11.97;83.72
6389;BME280;3227;42.654;23.360;2023-04-19T01:03:25;93993.41;;;12.04;83.02
6389;BME280;3227;42.654;23.360;2023-04-19T01:05:54;93950.97;;;11.79;83.00
6389;BME280;3227;42.654;23.360;2023-04-19T01:08:26;93996.78;;;12.09;83.68
6389;BME280;3227;42.654;23.360;2023-04-19T01:10:52;93995.84;;;12.12;82.63
6389;BME280;3227;42.654;23.360;2023-04-19T01:13:21;93989.00;;;12.11;83.39
6389;BME280;3227;42.654;23.360;2023-04-19T01:15:47;93977.25;;;11.96;83.35
6389;BME280;3227;42.654;23.360;2023-04-19T01:18:15;93984.09;;;11.97;83.10
6389;BME280;3227;42.654;23.360;2023-04-19T01:20:43;93995.22;;;11.98;83.26
6389;BME280;3227;42.654;23.360;2023-04-19T01:23:12;93989.19;;;12.00;84.55
6389;BME280;3227;42.654;23.360;2023-04-19T01:25:38;93989.19;;;12.02;83.67
6389;BME280;3227;42.654;23.360;2023-04-19T01:28:05;93995.19;;;12.01;83.98
6389;BME280;3227;42.654;23.360;2023-04-19T01:30:33;93986.63;;;12.00;84.05
6389;BME280;3227;42.654;23.360;2023-04-19T01:33:00;93967.16;;;11.84;83.93
6389;BME280;3227;42.654;23.360;2023-04-19T01:35:26;93934.03;;;11.66;84.26
6389;BME280;3227;42.654;23.360;2023-04-19T01:37:53;93984.81;;;12.05;84.58
6389;BME280;3227;42.654;23.360;2023-04-19T01:40:23;93992.44;;;12.11;83.84
6389;BME280;3227;42.654;23.360;2023-04-19T01:42:50;93988.19;;;12.10;82.90
6389;BME280;3227;42.654;23.360;2023-04-19T01:45:17;93986.53;;;12.06;83.05
6389;BME280;3227;42.654;23.360;2023-04-19T01:47:44;93989.09;;;12.08;83.47
6389;BME280;3227;42.654;23.360;2023-04-19T01:50:11;93991.63;;;12.09;83.11
6389;BME280;3227;42.654;23.360;2023-04-19T01:52:37;93982.25;;;12.07;82.96
6389;BME280;3227;42.654;23.360;2023-04-19T01:55:04;93981.50;;;12.00;83.80
6389;BME280;3227;42.654;23.360;2023-04-19T01:57:33;93975.53;;;11.97;84.19
6389;BME280;3227;42.654;23.360;2023-04-19T02:00:00;93972.94;;;11.98;83.96
6389;BME280;3227;42.654;23.360;2023-04-19T02:02:27;93979.81;;;11.98;84.27
6389;BME280;3227;42.654;23.360;2023-04-19T02:04:54;93964.47;;;11.93;84.13
6389;BME280;3227;42.654;23.360;2023-04-19T02:07:21;93970.47;;;11.94;84.56
6389;BME280;3227;42.654;23.360;2023-04-19T02:09:47;93975.53;;;11.98;84.66
6389;BME280;3227;42.654;23.360;2023-04-19T02:12:15;93927.09;;;11.71;84.97
6389;BME280;3227;42.654;23.360;2023-04-19T02:14:43;93970.41;;;11.95;84.83
6389;BME280;3227;42.654;23.360;2023-04-19T02:17:10;93970.41;;;11.97;85.25
6389;BME280;3227;42.654;23.360;2023-04-19T02:19:42;93965.34;;;11.92;85.17
6389;BME280;3227;42.654;23.360;2023-04-19T02:22:09;93963.75;;;11.85;85.17
6389;BME280;3227;42.654;23.360;2023-04-19T02:24:36;93969.75;;;11.84;85.88
6389;BME280;3227;42.654;23.360;2023-04-19T02:27:03;93968.94;;;11.79;85.56
6389;BME280;3227;42.654;23.360;2023-04-19T02:29:30;93965.69;;;11.63;85.83
6389;BME280;3227;42.654;23.360;2023-04-19T02:31:58;93958.91;;;11.59;86.33
6389;BME280;3227;42.654;23.360;2023-04-19T02:34:26;93970.06;;;11.55;86.67
6389;BME280;3227;42.654;23.360;2023-04-19T02:36:53;93967.56;;;11.52;87.07
6389;BME280;3227;42.654;23.360;2023-04-19T02:39:20;93971.75;;;11.61;87.13
6389;BME280;3227;42.654;23.360;2023-04-19T02:41:46;93978.59;;;11.59;87.36
6389;BME280;3227;42.654;23.360;2023-04-19T02:44:13;93970.03;;;11.60;87.32
6389;BME280;3227;42.654;23.360;2023-04-19T02:46:40;93971.75;;;11.59;87.10
6389;BME280;3227;42.654;23.360;2023-04-19T02:49:08;93974.31;;;11.59;87.85
6389;BME280;3227;42.654;23.360;2023-04-19T02:51:35;93968.38;;;11.56;87.74
6389;BME280;3227;42.654;23.360;2023-04-19T02:54:02;93974.31;;;11.61;87.91
6389;BME280;3227;42.654;23.360;2023-04-19T02:56:29;93973.34;;;11.68;87.23
6389;BME280;3227;42.654;23.360;2023-04-19T02:58:59;93979.38;;;11.64;87.04
6389;BME280;3227;42.654;23.360;2023-04-19T03:01:26;93972.59;;;11.60;87.18
6389;BME280;3227;42.654;23.360;2023-04-19T03:03:53;93932.75;;;11.34;86.56
6389;BME280;3227;42.654;23.360;2023-04-19T03:06:21;93980.25;;;11.63;86.80
6389;BME280;3227;42.654;23.360;2023-04-19T03:08:47;93975.09;;;11.63;87.32
6389;BME280;3227;42.654;23.360;2023-04-19T03:11:15;93914.84;;;11.28;86.32
6389;BME280;3227;42.654;23.360;2023-04-19T03:13:42;93966.78;;;11.45;86.94
6389;BME280;3227;42.654;23.360;2023-04-19T03:16:09;93961.72;;;11.39;87.78
6389;BME280;3227;42.654;23.360;2023-04-19T03:18:36;93965.16;;;11.38;87.74
6389;BME280;3227;42.654;23.360;2023-04-19T03:21:03;93933.81;;;11.15;86.85
6389;BME280;3227;42.654;23.360;2023-04-19T03:23:34;93954.13;;;11.32;87.67
6389;BME280;3227;42.654;23.360;2023-04-19T03:26:01;93968.66;;;11.34;87.73
6389;BME280;3227;42.654;23.360;2023-04-19T03:28:28;93960.13;;;11.32;86.78
6389;BME280;3227;42.654;23.360;2023-04-19T03:30:55;93966.03;;;11.37;87.56
6389;BME280;3227;42.654;23.360;2023-04-19T03:33:21;93961.84;;;11.30;86.84
6389;BME280;3227;42.654;23.360;2023-04-19T03:35:48;93968.69;;;11.28;87.36
6389;BME280;3227;42.654;23.360;2023-04-19T03:38:15;93960.13;;;11.32;87.57
6389;BME280;3227;42.654;23.360;2023-04-19T03:40:43;93955.94;;;11.25;86.78
6389;BME280;3227;42.654;23.360;2023-04-19T03:43:11;93966.94;;;11.33;87.11
6389;BME280;3227;42.654;23.360;2023-04-19T03:45:38;93964.38;;;11.35;86.51
6389;BME280;3227;42.654;23.360;2023-04-19T03:48:05;93968.63;;;11.36;87.02
6389;BME280;3227;42.654;23.360;2023-04-19T03:50:32;93953.28;;;11.30;86.62
6389;BME280;3227;42.654;23.360;2023-04-19T03:52:58;93953.28;;;11.30;86.95
6389;BME280;3227;42.654;23.360;2023-04-19T03:55:25;93957.53;;;11.34;86.53
6389;BME280;3227;42.654;23.360;2023-04-19T03:57:53;93958.41;;;11.31;86.27
6389;BME280;3227;42.654;23.360;2023-04-19T04:00:20;93877.91;;;10.76;86.93
6389;BME280;3227;42.654;23.360;2023-04-19T04:02:47;93953.38;;;11.25;86.67
6389;BME280;3227;42.654;23.360;2023-04-19T04:05:14;93915.97;;;11.06;86.74
6389;BME280;3227;42.654;23.360;2023-04-19T04:07:41;93960.94;;;11.36;86.70
6389;BME280;3227;42.654;23.360;2023-04-19T04:10:08;93970.41;;;11.29;86.21
6389;BME280;3227;42.654;23.360;2023-04-19T04:12:35;93967.03;;;11.27;86.65
6389;BME280;3227;42.654;23.360;2023-04-19T04:15:04;93966.19;;;11.27;86.31
6389;BME280;3227;42.654;23.360;2023-04-19T04:17:30;93973.81;;;11.31;86.02
6389;BME280;3227;42.654;23.360;2023-04-19T04:19:57;93982.34;;;11.32;87.09
6389;BME280;3227;42.654;23.360;2023-04-19T04:22:24;93978.94;;;11.31;87.12
6389;BME280;3227;42.654;23.360;2023-04-19T04:24:51;93977.97;;;11.38;86.41
6389;BME280;3227;42.654;23.360;2023-04-19T04:27:18;93977.13;;;11.39;86.13
6389;BME280;3227;42.654;23.360;2023-04-19T04:29:45;93972.84;;;11.38;86.39
6389;BME280;3227;42.654;23.360;2023-04-19T04:32:15;93967.69;;;11.43;86.13
6389;BME280;3227;42.654;23.360;2023-04-19T04:34:42;93974.69;;;11.29;86.58
6389;BME280;3227;42.654;23.360;2023-04-19T04:37:10;93981.56;;;11.27;85.97
6389;BME280;3227;42.654;23.360;2023-04-19T04:39:36;93977.38;;;11.18;86.47
6389;BME280;3227;42.654;23.360;2023-04-19T04:42:04;93980.81;;;11.17;86.72
6389;BME280;3227;42.654;23.360;2023-04-19T04:44:33;93975.59;;;11.26;86.89
6389;BME280;3227;42.654;23.360;2023-04-19T04:47:00;93979.00;;;11.27;86.80
6389;BME280;3227;42.654;23.360;2023-04-19T04:49:34;93981.66;;;11.19;86.87
6389;BME280;3227;42.654;23.360;2023-04-19T04:52:02;93986.81;;;11.13;87.20
6389;BME280;3227;42.654;23.360;2023-04-19T04:54:29;93972.25;;;11.18;87.27
6389;BME280;3227;42.654;23.360;2023-04-19T04:56:56;93978.16;;;11.25;86.68
6389;BME280;3227;42.654;23.360;2023-04-19T04:59:22;93987.53;;;11.27;86.75
6389;BME280;3227;42.654;23.360;2023-04-19T05:01:49;93983.09;;;11.41;86.76
6389;BME280;3227;42.654;23.360;2023-04-19T05:04:17;93991.59;;;11.45;85.92
6389;BME280;3227;42.654;23.360;2023-04-19T05:06:46;93982.97;;;11.52;85.68
6389;BME280;3227;42.654;23.360;2023-04-19T05:09:12;93986.31;;;11.57;85.03
6389;BME280;3227;42.654;23.360;2023-04-19T05:11:39;93999.25;;;11.48;85.09
6389;BME280;3227;42.654;23.360;2023-04-19T05:14:06;93992.44;;;11.45;85.56
6389;BME280;3227;42.654;23.360;2023-04-19T05:16:33;93998.50;;;11.38;85.81
6389;BME280;3227;42.654;23.360;2023-04-19T05:19:00;93992.50;;;11.42;85.98
6389;BME280;3227;42.654;23.360;2023-04-19T05:21:27;93995.91;;;11.41;85.63
6389;BME280;3227;42.654;23.360;2023-04-19T05:23:55;93990.78;;;11.41;86.49
6389;BME280;3227;42.654;23.360;2023-04-19T05:26:21;93994.22;;;11.40;85.64
6389;BME280;3227;42.654;23.360;2023-04-19T05:28:49;93997.63;;;11.41;86.25
6389;BME280;3227;42.654;23.360;2023-04-19T05:31:21;93924.41;;;11.17;85.89
6389;BME280;3227;42.654;23.360;2023-04-19T05:33:48;94001.59;;;11.65;86.44
6389;BME280;3227;42.654;23.360;2023-04-19T05:36:15;93999.88;;;11.67;85.07
6389;BME280;3227;42.654;23.360;2023-04-19T05:38:42;94008.34;;;11.75;85.56
6389;BME280;3227;42.654;23.360;2023-04-19T05:41:10;93993.78;;;11.77;85.74
6389;BME280;3227;42.654;23.360;2023-04-19T05:43:37;94001.22;;;11.95;84.66
6389;BME280;3227;42.654;23.360;2023-04-19T05:46:05;93966.34;;;11.80;84.12
6389;BME280;3227;42.654;23.360;2023-04-19T05:48:32;93996.69;;;12.12;83.51
6389;BME280;3227;42.654;23.360;2023-04-19T05:50:59;94000.13;;;12.13;82.50
6389;BME280;3227;42.654;23.360;2023-04-19T05:53:26;93973.81;;;11.97;83.89
6389;BME280;3227;42.654;23.360;2023-04-19T05:55:54;94008.56;;;12.19;83.22
6389;BME280;3227;42.654;23.360;2023-04-19T05:58:22;94012.72;;;12.28;83.00
6389;BME280;3227;42.654;23.360;2023-04-19T06:00:50;94001.81;;;12.15;83.02
6389;BME280;3227;42.654;23.360;2023-04-19T06:03:17;94004.53;;;12.05;83.05
6389;BME280;3227;42.654;23.360;2023-04-19T06:05:44;94012.22;;;12.06;84.80
6389;BME280;3227;42.654;23.360;2023-04-19T06:08:11;94002.75;;;12.10;83.28
6389;BME280;3227;42.654;23.360;2023-04-19T06:10:41;93991.78;;;11.99;83.64
6389;BME280;3227;42.654;23.360;2023-04-19T06:13:11;94004.28;;;12.20;84.15
6389;BME280;3227;42.654;23.360;2023-04-19T06:15:40;94009.25;;;12.32;82.59
6389;BME280;3227;42.654;23.360;2023-04-19T06:18:06;94010.97;;;12.32;82.02
6389;BME280;3227;42.654;23.360;2023-04-19T06:20:35;94006.69;;;12.34;82.17
6389;BME280;3227;42.654;23.360;2023-04-19T06:23:02;94011.72;;;12.40;82.17
6389;BME280;3227;42.654;23.360;2023-04-19T06:25:29;94008.31;;;12.38;81.14
6389;BME280;3227;42.654;23.360;2023-04-19T06:27:56;94010.03;;;12.37;81.87
6389;BME280;3227;42.654;23.360;2023-04-19T06:30:22;94005.84;;;12.32;81.66
6389;BME280;3227;42.654;23.360;2023-04-19T06:32:51;94004.09;;;12.34;82.16
6389;BME280;3227;42.654;23.360;2023-04-19T06:35:18;94008.25;;;12.42;82.41
6389;BME280;3227;42.654;23.360;2023-04-19T06:37:45;94003.66;;;12.61;81.77
6389;BME280;3227;42.654;23.360;2023-04-19T06:40:12;94014.47;;;12.81;80.99
6389;BME280;3227;42.654;23.360;2023-04-19T06:42:39;94014.94;;;13.03;79.32
6389;BME280;3227;42.654;23.360;2023-04-19T06:45:06;94018.34;;;13.05;78.26
6389;BME280;3227;42.654;23.360;2023-04-19T06:47:33;94012.97;;;13.19;78.69
6389;BME280;3227;42.654;23.360;2023-04-19T06:50:01;94008.25;;;13.42;77.13
6389;BME280;3227;42.654;23.360;2023-04-19T06:52:28;94019.28;;;13.47;76.08
6389;BME280;3227;42.654;23.360;2023-04-19T06:54:55;94020.22;;;13.43;76.98
6389;BME280;3227;42.654;23.360;2023-04-19T06:57:22;94022.03;;;13.38;76.28
6389;BME280;3227;42.654;23.360;2023-04-19T06:59:49;94022.19;;;13.30;77.45
6389;BME280;3227;42.654;23.360;2023-04-19T07:02:16;94027.06;;;13.44;76.90
6389;BME280;3227;42.654;23.360;2023-04-19T07:04:42;94026.75;;;13.59;76.48
6389;BME280;3227;42.654;23.360;2023-04-19T07:07:11;94025.72;;;13.69;75.50
6389;BME280;3227;42.654;23.360;2023-04-19T07:09:38;93959.44;;;13.38;75.17
6389;BME280;3227;42.654;23.360;2023-04-19T07:12:05;93985.34;;;13.71;75.05
6389;BME280;3227;42.654;23.360;2023-04-19T07:14:32;94029.72;;;14.24;73.96
6389;BME280;3227;42.654;23.360;2023-04-19T07:16:59;94016.69;;;14.30;72.82
6389;BME280;3227;42.654;23.360;2023-04-19T07:19:25;94029.09;;;14.52;72.62
6389;BME280;3227;42.654;23.360;2023-04-19T07:21:53;94024.63;;;14.60;70.78
6389;BME280;3227;42.654;23.360;2023-04-19T07:24:21;94025.66;;;14.53;70.83
6389;BME280;3227;42.654;23.360;2023-04-19T07:26:48;93965.56;;;14.12;71.09
6389;BME280;3227;42.654;23.360;2023-04-19T07:29:14;94011.28;;;14.42;71.66
6389;BME280;3227;42.654;23.360;2023-04-19T07:31:42;94034.81;;;14.66;72.37
6389;BME280;3227;42.654;23.360;2023-04-19T07:34:08;94032.91;;;14.74;71.34
6389;BME280;3227;42.654;23.360;2023-04-19T07:36:35;94031.03;;;14.79;71.55
6389;BME280;3227;42.654;23.360;2023-04-19T07:39:03;94010.41;;;14.79;72.02
6389;BME280;3227;42.654;23.360;2023-04-19T07:41:31;94030.91;;;14.83;69.27
6389;BME280;3227;42.654;23.360;2023-04-19T07:43:58;93992.63;;;14.31;70.61
6389;BME280;3227;42.654;23.360;2023-04-19T07:46:25;94030.06;;;14.49;70.89
6389;BME280;3227;42.654;23.360;2023-04-19T07:48:52;94035.56;;;14.32;70.43
6389;BME280;3227;42.654;23.360;2023-04-19T07:51:18;94033.25;;;14.19;71.67
6389;BME280;3227;42.654;23.360;2023-04-19T07:53:48;94032.31;;;14.24;74.10
6389;BME280;3227;42.654;23.360;2023-04-19T07:56:14;94034.75;;;14.29;73.04
6389;BME280;3227;42.654;23.360;2023-04-19T07:58:42;94033.84;;;14.31;73.34
6389;BME280;3227;42.654;23.360;2023-04-19T08:01:09;94031.38;;;14.25;71.78
6389;BME280;3227;42.654;23.360;2023-04-19T08:03:36;94033.91;;;14.28;73.33
6389;BME280;3227;42.654;23.360;2023-04-19T08:06:04;94038.25;;;14.26;72.74
6389;BME280;3227;42.654;23.360;2023-04-19T08:08:32;94036.53;;;14.25;73.61
6389;BME280;3227;42.654;23.360;2023-04-19T08:10:59;94030.59;;;14.23;73.97
6389;BME280;3227;42.654;23.360;2023-04-19T08:13:26;94027.91;;;14.28;73.42
6389;BME280;3227;42.654;23.360;2023-04-19T08:15:54;94028.78;;;14.27;72.49
6389;BME280;3227;42.654;23.360;2023-04-19T08:18:21;94016.22;;;14.13;73.70
6389;BME280;3227;42.654;23.360;2023-04-19T08:20:48;94036.47;;;14.30;72.33
6389;BME280;3227;42.654;23.360;2023-04-19T08:23:15;94033.19;;;14.22;72.09
6389;BME280;3227;42.654;23.360;2023-04-19T08:25:42;94036.19;;;14.02;72.57
6389;BME280;3227;42.654;23.360;2023-04-19T08:28:09;94037.25;;;13.92;73.60
6389;BME280;3227;42.654;23.360;2023-04-19T08:30:36;94031.13;;;13.99;74.05
6389;BME280;3227;42.654;23.360;2023-04-19T08:33:05;94033.06;;;13.88;72.58
6389;BME280;3227;42.654;23.360;2023-04-19T08:35:33;94025.69;;;13.71;74.49
6389;BME280;3227;42.654;23.360;2023-04-19T08:38:00;94025.47;;;13.82;74.56
6389;BME280;3227;42.654;23.360;2023-04-19T08:40:29;94025.38;;;13.86;74.82
6389;BME280;3227;42.654;23.360;2023-04-19T08:42:56;93988.59;;;13.80;75.14
6389;BME280;3227;42.654;23.360;2023-04-19T08:45:25;94024.66;;;14.20;74.03
6389;BME280;3227;42.654;23.360;2023-04-19T08:47:53;94018.66;;;14.19;73.95
6389;BME280;3227;42.654;23.360;2023-04-19T08:50:22;94021.84;;;14.30;73.79
6389;BME280;3227;42.654;23.360;2023-04-19T08:52:49;94011.19;;;14.47;73.36
6389;BME280;3227;42.654;23.360;2023-04-19T08:55:16;94020.31;;;14.60;71.70
6389;BME280;3227;42.654;23.360;2023-04-19T08:57:43;94015.16;;;14.60;71.12
6389;BME280;3227;42.654;23.360;2023-04-19T09:00:11;94010.69;;;14.67;71.42
6389;BME280;3227;42.654;23.360;2023-04-19T09:02:45;93984.38;;;14.54;71.33
6389;BME280;3227;42.654;23.360;2023-04-19T09:05:13;94006.81;;;14.84;70.49
6389;BME280;3227;42.654;23.360;2023-04-19T09:07:44;94010.34;;;14.82;69.40
6389;BME280;3227;42.654;23.360;2023-04-19T09:10:12;94003.94;;;14.63;69.39
6389;BME280;3227;42.654;23.360;2023-04-19T09:12:39;94000.69;;;14.55;70.55
6389;BME280;3227;42.654;23.360;2023-04-19T09:15:07;94004.69;;;14.66;71.04
6389;BME280;3227;42.654;23.360;2023-04-19T09:17:35;94002.06;;;14.68;70.30
6389;BME280;3227;42.654;23.360;2023-04-19T09:20:03;93987.50;;;14.67;68.92
6389;BME280;3227;42.654;23.360;2023-04-19T09:22:30;93997.50;;;14.80;69.02
6389;BME280;3227;42.654;23.360;2023-04-19T09:24:58;93998.47;;;14.75;68.08
6389;BME280;3227;42.654;23.360;2023-04-19T09:27:27;93994.22;;;14.74;67.98
6389;BME280;3227;42.654;23.360;2023-04-19T09:29:55;93998.19;;;14.87;69.96
6389;BME280;3227;42.654;23.360;2023-04-19T09:32:23;94005.88;;;14.89;65.89
6389;BME280;3227;42.654;23.360;2023-04-19T09:34:51;93997.34;;;14.85;67.72
6389;BME280;3227;42.654;23.360;2023-04-19T09:37:18;94001.38;;;14.97;67.46
6389;BME280;3227;42.654;23.360;2023-04-19T09:39:46;94002.97;;;15.01;68.65
6389;BME280;3227;42.654;23.360;2023-04-19T09:42:14;94001.41;;;14.95;66.36
6389;BME280;3227;42.654;23.360;2023-04-19T09:44:44;93988.53;;;14.94;67.30
6389;BME280;3227;42.654;23.360;2023-04-19T09:47:23;93993.59;;;14.98;67.17
6389;BME280;3227;42.654;23.360;2023-04-19T09:50:04;93991.88;;;14.99;67.38
6389;BME280;3227;42.654;23.360;2023-04-19T09:52:32;93985.59;;;15.07;68.33
6389;BME280;3227;42.654;23.360;2023-04-19T09:55:00;93957.22;;;15.07;66.73
6389;BME280;3227;42.654;23.360;2023-04-19T09:57:30;93973.97;;;15.23;65.28
6389;BME280;3227;42.654;23.360;2023-04-19T09:59:57;93971.75;;;15.11;65.26
6389;BME280;3227;42.654;23.360;2023-04-19T10:02:25;93970.94;;;15.09;66.75
6389;BME280;3227;42.654;23.360;2023-04-19T10:04:56;93963.97;;;15.13;65.96
6389;BME280;3227;42.654;23.360;2023-04-19T10:07:24;93974.63;;;14.99;64.60
6389;BME280;3227;42.654;23.360;2023-04-19T10:09:53;93960.91;;;14.99;66.03
6389;BME280;3227;42.654;23.360;2023-04-19T10:12:22;93969.13;;;15.13;65.23
6389;BME280;3227;42.654;23.360;2023-04-19T10:14:52;93962.09;;;15.18;63.78
6389;BME280;3227;42.654;23.360;2023-04-19T10:17:21;93963.88;;;15.16;65.71
6389;BME280;3227;42.654;23.360;2023-04-19T10:19:51;93963.03;;;15.15;64.59
6389;BME280;3227;42.654;23.360;2023-04-19T10:22:20;93960.19;;;15.24;65.16
6389;BME280;3227;42.654;23.360;2023-04-19T10:25:09;93959.16;;;15.32;65.38
6389;BME280;3227;42.654;23.360;2023-04-19T10:27:37;93958.56;;;15.53;65.89
6389;BME280;3227;42.654;23.360;2023-04-19T10:30:06;93953.34;;;15.56;63.81
6389;BME280;3227;42.654;23.360;2023-04-19T10:32:44;93913.22;;;15.43;65.42
6389;BME280;3227;42.654;23.360;2023-04-19T10:35:17;93947.75;;;15.71;65.77
6389;BME280;3227;42.654;23.360;2023-04-19T10:38:05;93956.78;;;15.86;64.98
6389;BME280;3227;42.654;23.360;2023-04-19T10:40:54;93956.81;;;15.84;61.85
6389;BME280;3227;42.654;23.360;2023-04-19T10:43:22;93952.47;;;15.86;60.79
6389;BME280;3227;42.654;23.360;2023-04-19T10:45:51;93953.44;;;15.82;60.93
6389;BME280;3227;42.654;23.360;2023-04-19T10:48:40;93903.50;;;15.52;61.14
6389;BME280;3227;42.654;23.360;2023-04-19T10:51:13;93946.66;;;15.78;61.54
6389;BME280;3227;42.654;23.360;2023-04-19T10:53:54;93925.19;;;15.76;62.11
6389;BME280;3227;42.654;23.360;2023-04-19T10:59:28;93939.06;;;16.02;60.47
6389;BME280;3227;42.654;23.360;2023-04-19T11:01:58;93925.22;;;16.04;59.12
6389;BME280;3227;42.654;23.360;2023-04-19T11:07:41;93916.09;;;15.92;59.43
6389;BME280;3227;42.654;23.360;2023-04-19T11:10:11;93931.78;;;16.14;59.09
6389;BME280;3227;42.654;23.360;2023-04-19T11:12:41;93928.06;;;16.23;58.68
6389;BME280;3227;42.654;23.360;2023-04-19T11:15:08;93927.38;;;16.18;58.93
6389;BME280;3227;42.654;23.360;2023-04-19T11:17:37;93894.78;;;16.14;59.51
6389;BME280;3227;42.654;23.360;2023-04-19T11:20:06;93876.56;;;16.17;58.83
6389;BME280;3227;42.654;23.360;2023-04-19T11:22:35;93919.53;;;16.47;57.76
6389;BME280;3227;42.654;23.360;2023-04-19T11:25:06;93919.31;;;16.55;57.34
6389;BME280;3227;42.654;23.360;2023-04-19T11:27:33;93919.78;;;16.67;57.03
6389;BME280;3227;42.654;23.360;2023-04-19T11:30:04;93911.50;;;16.83;57.11
6389;BME280;3227;42.654;23.360;2023-04-19T11:32:33;93913.97;;;16.86;56.08
6389;BME280;3227;42.654;23.360;2023-04-19T11:35:05;93923.84;;;16.74;54.52
6389;BME280;3227;42.654;23.360;2023-04-19T11:37:33;93916.81;;;16.52;53.35
6389;BME280;3227;42.654;23.360;2023-04-19T11:40:00;93879.28;;;16.14;54.19
6389;BME280;3227;42.654;23.360;2023-04-19T11:42:26;93922.63;;;16.58;54.77
6389;BME280;3227;42.654;23.360;2023-04-19T11:44:53;93906.63;;;16.73;54.56
6389;BME280;3227;42.654;23.360;2023-04-19T11:47:21;93901.94;;;16.85;53.36
6389;BME280;3227;42.654;23.360;2023-04-19T11:49:48;93917.97;;;16.96;54.45
6389;BME280;3227;42.654;23.360;2023-04-19T11:52:21;93912.88;;;16.93;53.22
6389;BME280;3227;42.654;23.360;2023-04-19T11:54:49;93913.28;;;17.05;52.25
6389;BME280;3227;42.654;23.360;2023-04-19T11:57:26;93904.34;;;17.14;51.93
6389;BME280;3227;42.654;23.360;2023-04-19T12:00:02;93898.84;;;17.23;52.23
6389;BME280;3227;42.654;23.360;2023-04-19T12:02:36;93901.13;;;17.32;51.27
6389;BME280;3227;42.654;23.360;2023-04-19T12:05:07;93899.38;;;17.33;51.44
6389;BME280;3227;42.654;23.360;2023-04-19T12:07:35;93882.94;;;17.34;49.75
6389;BME280;3227;42.654;23.360;2023-04-19T12:10:10;93901.91;;;17.34;48.55
6389;BME280;3227;42.654;23.360;2023-04-19T12:12:37;93899.31;;;17.34;49.92
6389;BME280;3227;42.654;23.360;2023-04-19T12:15:05;93886.69;;;17.25;50.57
6389;BME280;3227;42.654;23.360;2023-04-19T12:17:32;93890.31;;;17.21;48.99
6389;BME280;3227;42.654;23.360;2023-04-19T12:19:59;93891.59;;;17.09;49.19
6389;BME280;3227;42.654;23.360;2023-04-19T12:22:25;93887.03;;;17.16;49.30
6389;BME280;3227;42.654;23.360;2023-04-19T12:24:53;93884.97;;;17.26;49.19
6389;BME280;3227;42.654;23.360;2023-04-19T12:27:20;93886.03;;;17.43;50.33
6389;BME280;3227;42.654;23.360;2023-04-19T12:29:47;93870.84;;;17.34;48.68
6389;BME280;3227;42.654;23.360;2023-04-19T12:32:14;93889.75;;;17.60;49.95
6389;BME280;3227;42.654;23.360;2023-04-19T12:34:41;93880.31;;;17.35;51.94
6389;BME280;3227;42.654;23.360;2023-04-19T12:37:08;93888.41;;;17.01;54.40
6389;BME280;3227;42.654;23.360;2023-04-19T12:39:34;93883.72;;;16.88;55.74
6389;BME280;3227;42.654;23.360;2023-04-19T12:42:03;93880.69;;;16.49;57.26
6389;BME280;3227;42.654;23.360;2023-04-19T12:44:30;93881.25;;;16.58;57.55
6389;BME280;3227;42.654;23.360;2023-04-19T12:46:57;93873.75;;;16.77;58.38
6389;BME280;3227;42.654;23.360;2023-04-19T12:49:23;93884.75;;;16.56;55.14
6389;BME280;3227;42.654;23.360;2023-04-19T12:51:50;93886.50;;;16.03;56.46
6389;BME280;3227;42.654;23.360;2023-04-19T12:54:17;93887.63;;;15.66;57.71
6389;BME280;3227;42.654;23.360;2023-04-19T12:56:44;93889.06;;;15.45;58.68
6389;BME280;3227;42.654;23.360;2023-04-19T12:59:12;93889.16;;;15.42;60.06
6389;BME280;3227;42.654;23.360;2023-04-19T13:01:39;93876.66;;;15.58;59.36
6389;BME280;3227;42.654;23.360;2023-04-19T13:04:06;93883.94;;;15.73;57.89
6389;BME280;3227;42.654;23.360;2023-04-19T13:06:36;93880.94;;;15.88;58.48
6389;BME280;3227;42.654;23.360;2023-04-19T13:09:03;93895.47;;;15.91;58.10
6389;BME280;3227;42.654;23.360;2023-04-19T13:11:30;93902.47;;;15.29;62.99
6389;BME280;3227;42.654;23.360;2023-04-19T13:13:56;93899.91;;;14.64;67.03
6389;BME280;3227;42.654;23.360;2023-04-19T13:16:24;93914.66;;;14.23;72.37
6389;BME280;3227;42.654;23.360;2023-04-19T13:18:51;93917.72;;;13.63;77.52
6389;BME280;3227;42.654;23.360;2023-04-19T13:21:19;93931.50;;;13.18;71.93